OEWSP LOWS-LOSM
Flight info
| Callsign | OEWSP |
|---|---|
| Flight time | 0h 18m |
| Altitude | 5000 |
| Route | NOT DCT |
| Aircraft | BE58/L-S/N |
Departure
| Time | 2026-04-28 20:12 |
|---|---|
| Airport | Salzburg Airport (LOWS) |
Arrival
| Time | 2026-04-28 20:31 |
|---|---|
| Airport | Mauterndorf Airfield (LOSM) |
| Time | Latitude | Longitude | Altitude | Speed | Heading |
|---|---|---|---|---|---|
| 2026-04-28 20:03 | 47.79522 | 12.99816 | 1414 ft | 0 kts | 336° |
| 2026-04-28 20:06 | 47.79544 | 12.99813 | 1414 ft | 9 kts | 39° |
| 2026-04-28 20:07 | 47.79590 | 12.99819 | 1414 ft | 7 kts | 335° |
| 2026-04-28 20:07 | 47.79619 | 12.99799 | 1414 ft | 7 kts | 336° |
| 2026-04-28 20:07 | 47.79695 | 12.99751 | 1414 ft | 10 kts | 335° |
| 2026-04-28 20:07 | 47.79749 | 12.99730 | 1414 ft | 7 kts | 35° |
| 2026-04-28 20:08 | 47.79768 | 12.99785 | 1415 ft | 7 kts | 66° |
| 2026-04-28 20:08 | 47.79833 | 12.99812 | 1415 ft | 14 kts | 337° |
| 2026-04-28 20:08 | 47.79941 | 12.99744 | 1415 ft | 20 kts | 337° |
| 2026-04-28 20:08 | 47.80073 | 12.99658 | 1415 ft | 20 kts | 335° |
| 2026-04-28 20:09 | 47.80199 | 12.99590 | 1415 ft | 17 kts | 356° |
| 2026-04-28 20:09 | 47.80252 | 12.99618 | 1415 ft | 0 kts | 49° |
| 2026-04-28 20:11 | 47.80266 | 12.99647 | 1415 ft | 11 kts | 63° |
| 2026-04-28 20:11 | 47.80285 | 12.99762 | 1415 ft | 10 kts | 97° |
| 2026-04-28 20:11 | 47.80209 | 12.99839 | 1415 ft | 30 kts | 157° |
| 2026-04-28 20:11 | 47.79738 | 13.00138 | 1415 ft | 111 kts | 156° |
| 2026-04-28 20:12 | 47.78911 | 13.00679 | 1565 ft | 142 kts | 155° |
| 2026-04-28 20:12 | 47.77980 | 13.01302 | 1795 ft | 151 kts | 151° |
| 2026-04-28 20:12 | 47.77029 | 13.02019 | 2060 ft | 153 kts | 152° |
| 2026-04-28 20:12 | 47.76394 | 13.02487 | 2277 ft | 153 kts | 152° |
| 2026-04-28 20:13 | 47.75149 | 13.03471 | 2706 ft | 152 kts | 147° |
| 2026-04-28 20:13 | 47.74255 | 13.04317 | 3044 ft | 152 kts | 146° |
| 2026-04-28 20:13 | 47.73352 | 13.05167 | 3387 ft | 156 kts | 146° |
| 2026-04-28 20:13 | 47.72435 | 13.05986 | 3737 ft | 155 kts | 146° |
| 2026-04-28 20:14 | 47.71493 | 13.06828 | 4090 ft | 162 kts | 146° |
| 2026-04-28 20:14 | 47.70525 | 13.07719 | 4428 ft | 167 kts | 146° |
| 2026-04-28 20:14 | 47.69549 | 13.08624 | 4771 ft | 165 kts | 146° |
| 2026-04-28 20:14 | 47.68570 | 13.09533 | 5097 ft | 167 kts | 146° |
| 2026-04-28 20:15 | 47.67591 | 13.10458 | 5417 ft | 167 kts | 147° |
| 2026-04-28 20:15 | 47.66581 | 13.11403 | 5504 ft | 180 kts | 147° |
| 2026-04-28 20:15 | 47.65505 | 13.12430 | 5511 ft | 187 kts | 146° |
| 2026-04-28 20:15 | 47.64410 | 13.13503 | 5507 ft | 191 kts | 146° |
| 2026-04-28 20:16 | 47.63297 | 13.14575 | 5503 ft | 191 kts | 147° |
| 2026-04-28 20:16 | 47.62194 | 13.15643 | 5508 ft | 189 kts | 146° |
| 2026-04-28 20:16 | 47.61011 | 13.16425 | 5503 ft | 189 kts | 173° |
| 2026-04-28 20:16 | 47.59813 | 13.16403 | 5508 ft | 188 kts | 183° |
| 2026-04-28 20:17 | 47.58509 | 13.16294 | 5511 ft | 188 kts | 183° |
| 2026-04-28 20:17 | 47.57207 | 13.16178 | 5507 ft | 188 kts | 183° |
| 2026-04-28 20:17 | 47.55907 | 13.16061 | 5506 ft | 188 kts | 183° |
| 2026-04-28 20:17 | 47.54606 | 13.15945 | 5512 ft | 188 kts | 183° |
| 2026-04-28 20:18 | 47.53310 | 13.15940 | 5503 ft | 187 kts | 168° |
| 2026-04-28 20:18 | 47.52488 | 13.16340 | 5508 ft | 187 kts | 158° |
| 2026-04-28 20:18 | 47.50912 | 13.17388 | 5510 ft | 187 kts | 154° |
| 2026-04-28 20:18 | 47.49847 | 13.18468 | 5508 ft | 187 kts | 138° |
| 2026-04-28 20:19 | 47.48888 | 13.19756 | 5511 ft | 186 kts | 137° |
| 2026-04-28 20:19 | 47.47933 | 13.21048 | 5514 ft | 186 kts | 137° |
| 2026-04-28 20:19 | 47.46979 | 13.22341 | 5515 ft | 187 kts | 137° |
| 2026-04-28 20:19 | 47.46024 | 13.23634 | 5517 ft | 187 kts | 137° |
| 2026-04-28 20:20 | 47.45069 | 13.24932 | 5516 ft | 187 kts | 137° |
| 2026-04-28 20:20 | 47.44207 | 13.26351 | 5513 ft | 187 kts | 119° |
| 2026-04-28 20:20 | 47.43744 | 13.28130 | 5516 ft | 187 kts | 106° |
| 2026-04-28 20:20 | 47.43394 | 13.29972 | 5521 ft | 187 kts | 105° |
| 2026-04-28 20:21 | 47.43053 | 13.31817 | 5519 ft | 187 kts | 105° |
| 2026-04-28 20:21 | 47.42677 | 13.33645 | 5520 ft | 187 kts | 111° |
| 2026-04-28 20:21 | 47.42155 | 13.35401 | 5518 ft | 187 kts | 115° |
| 2026-04-28 20:21 | 47.41617 | 13.37149 | 5516 ft | 187 kts | 114° |
| 2026-04-28 20:22 | 47.41085 | 13.38894 | 5520 ft | 187 kts | 114° |
| 2026-04-28 20:22 | 47.40553 | 13.40636 | 5519 ft | 187 kts | 114° |
| 2026-04-28 20:22 | 47.39947 | 13.42318 | 5515 ft | 186 kts | 124° |
| 2026-04-28 20:22 | 47.39206 | 13.43881 | 5519 ft | 186 kts | 125° |
| 2026-04-28 20:23 | 47.38450 | 13.45433 | 5515 ft | 187 kts | 130° |
| 2026-04-28 20:23 | 47.37477 | 13.46685 | 5514 ft | 186 kts | 144° |
| 2026-04-28 20:23 | 47.36515 | 13.47706 | 5512 ft | 186 kts | 144° |
| 2026-04-28 20:23 | 47.35388 | 13.48606 | 5512 ft | 185 kts | 158° |
| 2026-04-28 20:24 | 47.34194 | 13.49304 | 5510 ft | 185 kts | 160° |
| 2026-04-28 20:24 | 47.32962 | 13.49821 | 5516 ft | 184 kts | 166° |
| 2026-04-28 20:24 | 47.31703 | 13.50133 | 5513 ft | 184 kts | 179° |
| 2026-04-28 20:24 | 47.30427 | 13.50036 | 5515 ft | 185 kts | 184° |
| 2026-04-28 20:25 | 47.29147 | 13.49885 | 5511 ft | 185 kts | 184° |
| 2026-04-28 20:25 | 47.27870 | 13.49733 | 5513 ft | 185 kts | 184° |
| 2026-04-28 20:25 | 47.26591 | 13.49585 | 5515 ft | 185 kts | 182° |
| 2026-04-28 20:25 | 47.25392 | 13.50120 | 5504 ft | 184 kts | 141° |
| 2026-04-28 20:26 | 47.24792 | 13.51717 | 5563 ft | 179 kts | 94° |
| 2026-04-28 20:26 | 47.24998 | 13.53515 | 5624 ft | 180 kts | 79° |
| 2026-04-28 20:26 | 47.25041 | 13.55304 | 5810 ft | 171 kts | 110° |
| 2026-04-28 20:26 | 47.24361 | 13.56766 | 5744 ft | 179 kts | 134° |
| 2026-04-28 20:27 | 47.23235 | 13.57636 | 5398 ft | 197 kts | 168° |
| 2026-04-28 20:27 | 47.21878 | 13.58035 | 5239 ft | 200 kts | 168° |
| 2026-04-28 20:27 | 47.20527 | 13.58637 | 4958 ft | 207 kts | 156° |
| 2026-04-28 20:27 | 47.19312 | 13.59755 | 4804 ft | 206 kts | 135° |
| 2026-04-28 20:28 | 47.18536 | 13.61478 | 4689 ft | 199 kts | 120° |
| 2026-04-28 20:28 | 47.17682 | 13.62997 | 4608 ft | 193 kts | 139° |
| 2026-04-28 20:28 | 47.16615 | 13.64185 | 4456 ft | 192 kts | 149° |
| 2026-04-28 20:28 | 47.15436 | 13.65035 | 4336 ft | 188 kts | 154° |
| 2026-04-28 20:29 | 47.14392 | 13.66084 | 4350 ft | 175 kts | 134° |
| 2026-04-28 20:29 | 47.13854 | 13.67466 | 4340 ft | 145 kts | 98° |
| 2026-04-28 20:29 | 47.13957 | 13.68833 | 4219 ft | 129 kts | 76° |
| 2026-04-28 20:29 | 47.14203 | 13.70112 | 4117 ft | 132 kts | 72° |
| 2026-04-28 20:30 | 47.14490 | 13.71372 | 4091 ft | 123 kts | 80° |
| 2026-04-28 20:30 | 47.14300 | 13.72377 | 4038 ft | 102 kts | 142° |
| 2026-04-28 20:30 | 47.13728 | 13.72193 | 3887 ft | 101 kts | 256° |
| 2026-04-28 20:30 | 47.13564 | 13.71120 | 3798 ft | 106 kts | 250° |
| 2026-04-28 20:31 | 47.13336 | 13.70127 | 3687 ft | 99 kts | 248° |
| 2026-04-28 20:31 | 47.13153 | 13.69406 | 3688 ft | 47 kts | 251° |
| 2026-04-28 20:31 | 47.13091 | 13.69136 | 3691 ft | 15 kts | 253° |
| 2026-04-28 20:31 | 47.13074 | 13.69111 | 3690 ft | 3 kts | 70° |
| 2026-04-28 20:32 | 47.13074 | 13.69112 | 3690 ft | 0 kts | 66° |
| 2026-04-28 20:33 | 47.13089 | 13.69185 | 3691 ft | 30 kts | 74° |
| 2026-04-28 20:33 | 47.13251 | 13.69854 | 3678 ft | 103 kts | 70° |
| 2026-04-28 20:33 | 47.13542 | 13.70929 | 3947 ft | 122 kts | 70° |
| 2026-04-28 20:33 | 47.13906 | 13.72098 | 4276 ft | 127 kts | 39° |
| 2026-04-28 20:34 | 47.14682 | 13.71919 | 4422 ft | 142 kts | 292° |
| 2026-04-28 20:34 | 47.14480 | 13.70440 | 4456 ft | 158 kts | 243° |
| 2026-04-28 20:34 | 47.14076 | 13.68962 | 4767 ft | 155 kts | 260° |
| 2026-04-28 20:34 | 47.14254 | 13.67394 | 4921 ft | 164 kts | 300° |
| 2026-04-28 20:35 | 47.14922 | 13.66001 | 5041 ft | 171 kts | 313° |
| 2026-04-28 20:35 | 47.15846 | 13.64887 | 5165 ft | 174 kts | 323° |
| 2026-04-28 20:35 | 47.16819 | 13.63824 | 5283 ft | 175 kts | 323° |
| 2026-04-28 20:35 | 47.17691 | 13.62573 | 5352 ft | 180 kts | 301° |
| 2026-04-28 20:36 | 47.18297 | 13.60966 | 5466 ft | 178 kts | 302° |
| 2026-04-28 20:36 | 47.19139 | 13.59639 | 5539 ft | 182 kts | 322° |
| 2026-04-28 20:36 | 47.19983 | 13.58250 | 5632 ft | 182 kts | 300° |
| 2026-04-28 20:36 | 47.20521 | 13.56613 | 5864 ft | 175 kts | 291° |
| 2026-04-28 20:37 | 47.20949 | 13.54951 | 6069 ft | 173 kts | 287° |
| 2026-04-28 20:37 | 47.21174 | 13.53231 | 6268 ft | 172 kts | 271° |
| 2026-04-28 20:37 | 47.21125 | 13.51475 | 6446 ft | 173 kts | 262° |
| 2026-04-28 20:37 | 47.20989 | 13.49733 | 6728 ft | 166 kts | 271° |
| 2026-04-28 20:38 | 47.21383 | 13.48185 | 7001 ft | 166 kts | 303° |
| 2026-04-28 20:38 | 47.22145 | 13.46878 | 7165 ft | 172 kts | 312° |
| 2026-04-28 20:38 | 47.22978 | 13.45537 | 7154 ft | 184 kts | 308° |
| 2026-04-28 20:38 | 47.23725 | 13.43912 | 6969 ft | 197 kts | 301° |
| 2026-04-28 20:39 | 47.24509 | 13.42274 | 6973 ft | 198 kts | 312° |
| 2026-04-28 20:39 | 47.25348 | 13.40674 | 6969 ft | 199 kts | 303° |
| 2026-04-28 20:39 | 47.26100 | 13.38970 | 6964 ft | 200 kts | 301° |
| 2026-04-28 20:39 | 47.26799 | 13.37203 | 6926 ft | 202 kts | 298° |
| 2026-04-28 20:40 | 47.27484 | 13.35389 | 6801 ft | 204 kts | 298° |
| 2026-04-28 20:40 | 47.28156 | 13.33547 | 6654 ft | 206 kts | 293° |
| 2026-04-28 20:40 | 47.28539 | 13.31519 | 6489 ft | 207 kts | 277° |
| 2026-04-28 20:40 | 47.28690 | 13.29410 | 6314 ft | 208 kts | 275° |
| 2026-04-28 20:41 | 47.28923 | 13.27313 | 6124 ft | 208 kts | 282° |
| 2026-04-28 20:41 | 47.29236 | 13.25238 | 5937 ft | 208 kts | 282° |
| 2026-04-28 20:41 | 47.29549 | 13.23163 | 5750 ft | 208 kts | 282° |
| 2026-04-28 20:41 | 47.29858 | 13.21093 | 5564 ft | 207 kts | 282° |
| 2026-04-28 20:42 | 47.30143 | 13.19018 | 5376 ft | 207 kts | 278° |
| 2026-04-28 20:42 | 47.30240 | 13.16909 | 5199 ft | 207 kts | 269° |
| 2026-04-28 20:42 | 47.30159 | 13.14799 | 5026 ft | 207 kts | 266° |
| 2026-04-28 20:42 | 47.30042 | 13.12712 | 4968 ft | 201 kts | 265° |
| 2026-04-28 20:43 | 47.29922 | 13.10692 | 4963 ft | 196 kts | 265° |
| 2026-04-28 20:43 | 47.29801 | 13.08718 | 4957 ft | 193 kts | 265° |
| 2026-04-28 20:43 | 47.29682 | 13.06768 | 4952 ft | 191 kts | 265° |
| 2026-04-28 20:43 | 47.29565 | 13.04839 | 4952 ft | 188 kts | 265° |
| 2026-04-28 20:44 | 47.29447 | 13.02928 | 4950 ft | 187 kts | 265° |
| 2026-04-28 20:44 | 47.29329 | 13.01026 | 4949 ft | 186 kts | 265° |
| 2026-04-28 20:44 | 47.29212 | 12.99127 | 4950 ft | 187 kts | 265° |
| 2026-04-28 20:44 | 47.29097 | 12.97231 | 4948 ft | 186 kts | 265° |
| 2026-04-28 20:45 | 47.28981 | 12.95336 | 4948 ft | 186 kts | 265° |
| 2026-04-28 20:45 | 47.28861 | 12.93478 | 4917 ft | 175 kts | 264° |
| 2026-04-28 20:45 | 47.28708 | 12.91840 | 4894 ft | 155 kts | 261° |
| 2026-04-28 20:45 | 47.28521 | 12.90201 | 4354 ft | 169 kts | 261° |
| 2026-04-28 20:46 | 47.28349 | 12.88485 | 3921 ft | 169 kts | 263° |
| 2026-04-28 20:46 | 47.28292 | 12.86812 | 3710 ft | 158 kts | 272° |
| 2026-04-28 20:46 | 47.28384 | 12.85238 | 3460 ft | 154 kts | 274° |
| 2026-04-28 20:46 | 47.28424 | 12.83652 | 3154 ft | 153 kts | 269° |
| 2026-04-28 20:47 | 47.28694 | 12.82324 | 3274 ft | 127 kts | 315° |
| 2026-04-28 20:47 | 47.29288 | 12.81653 | 3094 ft | 100 kts | 311° |
| 2026-04-28 20:47 | 47.29412 | 12.80699 | 2670 ft | 97 kts | 259° |
| 2026-04-28 20:47 | 47.29279 | 12.79848 | 2549 ft | 94 kts | 255° |
| 2026-04-28 20:48 | 47.29136 | 12.78989 | 2507 ft | 68 kts | 256° |
| 2026-04-28 20:48 | 47.29080 | 12.78633 | 2508 ft | 13 kts | 262° |
| 2026-04-28 20:48 | 47.29071 | 12.78589 | 2505 ft | 3 kts | 165° |
| 2026-04-28 20:48 | 47.29113 | 12.78851 | 2508 ft | 67 kts | 75° |
| 2026-04-28 20:49 | 47.29281 | 12.79793 | 2631 ft | 111 kts | 74° |
| 2026-04-28 20:49 | 47.29762 | 12.80611 | 2940 ft | 117 kts | 17° |
| 2026-04-28 20:49 | 47.30629 | 12.80722 | 3115 ft | 134 kts | 2° |
| 2026-04-28 20:49 | 47.31600 | 12.80837 | 3286 ft | 145 kts | 5° |
| 2026-04-28 20:50 | 47.32628 | 12.80978 | 3483 ft | 152 kts | 5° |
| 2026-04-28 20:50 | 47.33725 | 12.81129 | 3516 ft | 166 kts | 5° |
| 2026-04-28 20:50 | 47.34910 | 12.81295 | 3514 ft | 176 kts | 5° |
| 2026-04-28 20:50 | 47.36153 | 12.81468 | 3508 ft | 183 kts | 5° |
| 2026-04-28 20:51 | 47.37422 | 12.81642 | 3508 ft | 184 kts | 5° |
| 2026-04-28 20:51 | 47.38695 | 12.81819 | 3513 ft | 184 kts | 5° |
| 2026-04-28 20:51 | 47.39968 | 12.81994 | 3507 ft | 184 kts | 5° |
| 2026-04-28 20:51 | 47.40816 | 12.82114 | 3506 ft | 185 kts | 5° |
| 2026-04-28 20:52 | 47.42517 | 12.82350 | 3505 ft | 184 kts | 5° |
| 2026-04-28 20:52 | 47.43790 | 12.82526 | 3499 ft | 184 kts | 5° |
| 2026-04-28 20:52 | 47.45056 | 12.82702 | 3500 ft | 183 kts | 5° |
| 2026-04-28 20:52 | 47.46324 | 12.82876 | 3496 ft | 184 kts | 5° |
| 2026-04-28 20:53 | 47.48664 | 12.81789 | 3493 ft | 184 kts | 311° |
| 2026-04-28 20:53 | 47.49351 | 12.80191 | 3494 ft | 185 kts | 297° |
| 2026-04-28 20:53 | 47.49886 | 12.78472 | 3504 ft | 185 kts | 294° |
| 2026-04-28 20:54 | 47.50603 | 12.76916 | 3493 ft | 184 kts | 316° |
| 2026-04-28 20:54 | 47.51520 | 12.75636 | 3510 ft | 181 kts | 319° |
| 2026-04-28 20:54 | 47.52454 | 12.74370 | 3501 ft | 183 kts | 319° |
| 2026-04-28 20:54 | 47.53392 | 12.73094 | 3505 ft | 184 kts | 321° |
| 2026-04-28 20:55 | 47.54538 | 12.72319 | 3497 ft | 183 kts | 345° |
| 2026-04-28 20:55 | 47.55748 | 12.71741 | 3505 ft | 183 kts | 340° |
| 2026-04-28 20:55 | 47.56960 | 12.71107 | 3505 ft | 187 kts | 342° |
| 2026-04-28 20:55 | 47.58245 | 12.70924 | 3508 ft | 188 kts | 9° |
| 2026-04-28 20:56 | 47.59493 | 12.71425 | 3506 ft | 185 kts | 22° |
| 2026-04-28 20:56 | 47.60639 | 12.72270 | 3505 ft | 184 kts | 27° |
| 2026-04-28 20:56 | 47.61777 | 12.73134 | 3509 ft | 185 kts | 28° |
| 2026-04-28 20:56 | 47.62838 | 12.74190 | 3501 ft | 183 kts | 37° |
| 2026-04-28 20:57 | 47.63797 | 12.75425 | 3501 ft | 184 kts | 41° |
| 2026-04-28 20:57 | 47.64685 | 12.76772 | 3500 ft | 182 kts | 46° |
| 2026-04-28 20:57 | 47.65449 | 12.78038 | 3501 ft | 182 kts | 47° |
| 2026-04-28 20:57 | 47.66317 | 12.79412 | 3499 ft | 184 kts | 46° |
| 2026-04-28 20:58 | 47.67191 | 12.80787 | 3495 ft | 183 kts | 45° |
| 2026-04-28 20:58 | 47.68061 | 12.82152 | 3514 ft | 183 kts | 44° |
| 2026-04-28 20:58 | 47.68970 | 12.83453 | 3502 ft | 179 kts | 43° |
| 2026-04-28 20:58 | 47.69865 | 12.84700 | 3529 ft | 178 kts | 43° |
| 2026-04-28 20:59 | 47.70813 | 12.85980 | 3508 ft | 188 kts | 42° |
| 2026-04-28 20:59 | 47.71748 | 12.87352 | 3514 ft | 192 kts | 50° |
| 2026-04-28 20:59 | 47.72447 | 12.89004 | 3450 ft | 182 kts | 63° |
| 2026-04-28 20:59 | 47.72992 | 12.90630 | 3266 ft | 171 kts | 59° |
| 2026-04-28 21:00 | 47.73496 | 12.92114 | 3200 ft | 152 kts | 62° |
| 2026-04-28 21:00 | 47.73879 | 12.93428 | 2886 ft | 157 kts | 67° |
| 2026-04-28 21:00 | 47.74211 | 12.94920 | 2805 ft | 143 kts | 70° |
| 2026-04-28 21:00 | 47.74508 | 12.96241 | 2833 ft | 126 kts | 65° |
| 2026-04-28 21:01 | 47.74829 | 12.97352 | 2672 ft | 110 kts | 60° |
| 2026-04-28 21:01 | 47.75228 | 12.98300 | 2421 ft | 107 kts | 53° |
| 2026-04-28 21:01 | 47.75651 | 12.99174 | 2243 ft | 103 kts | 49° |
| 2026-04-28 21:01 | 47.76083 | 13.00013 | 2097 ft | 100 kts | 51° |
| 2026-04-28 21:02 | 47.76530 | 13.00832 | 1957 ft | 105 kts | 45° |
| 2026-04-28 21:02 | 47.77047 | 13.01541 | 1775 ft | 96 kts | 22° |
| 2026-04-28 21:02 | 47.77648 | 13.01459 | 1600 ft | 91 kts | 334° |
| 2026-04-28 21:02 | 47.78246 | 13.01076 | 1474 ft | 95 kts | 335° |
| 2026-04-28 21:03 | 47.78834 | 13.00708 | 1417 ft | 84 kts | 335° |
| 2026-04-28 21:03 | 47.79257 | 13.00441 | 1415 ft | 41 kts | 337° |
| 2026-04-28 21:03 | 47.79408 | 13.00341 | 1418 ft | 11 kts | 324° |
| 2026-04-28 21:03 | 47.79411 | 13.00255 | 1416 ft | 9 kts | 247° |
| 2026-04-28 21:04 | 47.79383 | 13.00160 | 1415 ft | 10 kts | 248° |
| 2026-04-28 21:04 | 47.79400 | 13.00086 | 1415 ft | 7 kts | 331° |
| 2026-04-28 21:04 | 47.79449 | 13.00055 | 1415 ft | 12 kts | 337° |
| 2026-04-28 21:04 | 47.79544 | 12.99993 | 1415 ft | 13 kts | 329° |
| 2026-04-28 21:05 | 47.79555 | 12.99926 | 1414 ft | 6 kts | 246° |
| 2026-04-28 21:05 | 47.79540 | 12.99872 | 1414 ft | 6 kts | 240° |
| 2026-04-28 21:05 | 47.79512 | 12.99845 | 1414 ft | 4 kts | 244° |
| 2026-04-28 21:05 | 47.79515 | 12.99819 | 1414 ft | 1 kts | 335° |
| 2026-04-28 21:06 | 47.79525 | 12.99813 | 1414 ft | 0 kts | 338° |